createdAt,value
2018-12-01T00:00:32.181Z,96.31
2018-12-01T00:01:12.775Z,95.45
2018-12-01T00:01:53.324Z,95.45
2018-12-01T00:02:33.897Z,96.02
2018-12-01T00:03:14.519Z,95.83
2018-12-01T00:03:55.095Z,95.36
2018-12-01T00:04:35.673Z,95.36
2018-12-01T00:05:16.241Z,95.74
2018-12-01T00:05:56.809Z,95.36
2018-12-01T00:06:37.371Z,95.64
2018-12-01T00:07:17.934Z,95.64
2018-12-01T00:07:58.564Z,95.45
2018-12-01T00:08:39.106Z,95.83
2018-12-01T00:09:19.660Z,95.64
2018-12-01T00:10:00.463Z,95.45
2018-12-01T00:10:41.024Z,95.64
2018-12-01T00:11:21.567Z,95.74
2018-12-01T00:12:02.123Z,95.64
2018-12-01T00:12:42.673Z,95.64
2018-12-01T00:13:23.228Z,95.55
2018-12-01T00:14:03.794Z,95.83
2018-12-01T00:14:44.342Z,95.93
2018-12-01T00:15:24.915Z,95.74
2018-12-01T00:16:05.494Z,95.45
2018-12-01T00:16:46.083Z,95.83
2018-12-01T00:17:26.694Z,95.93
2018-12-01T00:18:07.248Z,95.93
2018-12-01T00:18:47.816Z,95.74
2018-12-01T00:19:28.372Z,95.26
2018-12-01T00:20:08.931Z,95.55
2018-12-01T00:20:49.502Z,95.64
2018-12-01T00:21:30.066Z,95.26
2018-12-01T00:22:10.631Z,95.64
2018-12-01T00:22:51.194Z,94.89
2018-12-01T00:23:31.758Z,94.98
2018-12-01T00:24:12.337Z,95.07
2018-12-01T00:24:52.889Z,94.89
2018-12-01T00:25:33.463Z,95.07
2018-12-01T00:26:14.051Z,94.89
2018-12-01T00:26:54.616Z,94.98
2018-12-01T00:27:35.245Z,95.26
2018-12-01T00:28:15.821Z,94.98
2018-12-01T00:28:56.383Z,95.64
2018-12-01T00:29:36.960Z,95.45
2018-12-01T00:30:17.525Z,95.36
2018-12-01T00:30:58.089Z,95.64
2018-12-01T00:31:38.650Z,95.93
2018-12-01T00:32:19.225Z,95.4
2018-12-01T00:32:59.801Z,95.31
2018-12-01T00:33:40.359Z,95.69
2018-12-01T00:34:20.924Z,95.59
2018-12-01T00:35:01.472Z,95.83
2018-12-01T00:35:42.059Z,96.4
2018-12-01T00:36:22.624Z,95.88
2018-12-01T00:37:03.267Z,96.07
2018-12-01T00:37:43.814Z,96.02
2018-12-01T00:38:24.367Z,96.35
2018-12-01T00:39:04.925Z,96.64
2018-12-01T00:39:45.491Z,96.35
2018-12-01T00:40:26.073Z,96.16
2018-12-01T00:41:06.649Z,96.54
2018-12-01T00:41:47.214Z,96.73
2018-12-01T00:42:27.759Z,96.54
2018-12-01T00:43:08.338Z,96.45
2018-12-01T00:43:48.903Z,97.06
2018-12-01T00:44:29.616Z,96.92
2018-12-01T00:45:10.176Z,96.83
2018-12-01T00:45:50.733Z,97.63
2018-12-01T00:46:31.291Z,97.49
2018-12-01T00:47:11.850Z,97.58
2018-12-01T00:47:52.442Z,97.54
2018-12-01T00:48:33.018Z,96.88
2018-12-01T00:49:13.635Z,97.2
2018-12-01T00:49:54.186Z,96.73
2018-12-01T00:50:34.755Z,97.2
2018-12-01T00:51:15.400Z,97.3
2018-12-01T00:51:55.956Z,96.83
2018-12-01T00:52:36.522Z,97.49
2018-12-01T00:53:17.093Z,97.2
2018-12-01T00:53:57.645Z,97.92
2018-12-01T00:54:38.201Z,96.88
2018-12-01T00:55:18.768Z,96.83
2018-12-01T00:55:59.385Z,96.83
2018-12-01T00:56:39.956Z,97.68
2018-12-01T00:57:20.527Z,97.2
2018-12-01T00:58:01.089Z,96.83
2018-12-01T00:58:41.656Z,96.64
2018-12-01T00:59:22.214Z,97.02
2018-12-01T01:00:02.775Z,96.92
2018-12-01T01:00:43.373Z,97.39
2018-12-01T01:01:23.935Z,97.02
2018-12-01T01:02:04.496Z,96.64
2018-12-01T01:02:45.053Z,96.92
2018-12-01T01:03:25.791Z,96.73
2018-12-01T01:04:06.173Z,96.92
2018-12-01T01:04:46.831Z,97.68
2018-12-01T01:05:27.371Z,97.68
2018-12-01T01:06:07.961Z,96.92
2018-12-01T01:06:48.555Z,96.73
2018-12-01T01:07:29.127Z,96.92
2018-12-01T01:08:09.680Z,97.11
2018-12-01T01:08:50.228Z,97.11
2018-12-01T01:09:30.813Z,97.68
2018-12-01T01:10:11.561Z,97.87
2018-12-01T01:10:52.117Z,97.49
2018-12-01T01:11:32.661Z,97.96
2018-12-01T01:12:13.222Z,97.49
2018-12-01T01:12:53.782Z,97.77
2018-12-01T01:13:34.335Z,97.77
2018-12-01T01:14:14.885Z,97.77
2018-12-01T01:14:55.448Z,97.96
2018-12-01T01:15:35.997Z,97.87
2018-12-01T01:16:16.557Z,97.58
2018-12-01T01:16:57.104Z,97.77
2018-12-01T01:17:37.684Z,98.25
2018-12-01T01:18:18.287Z,98.34
2018-12-01T01:18:58.844Z,98.44
2018-12-01T01:19:39.398Z,98.15
2018-12-01T01:20:19.957Z,97.39
2018-12-01T01:21:00.513Z,97.96
2018-12-01T01:21:41.089Z,97.77
2018-12-01T01:22:21.680Z,97.68
2018-12-01T01:23:02.244Z,97.87
2018-12-01T01:23:42.797Z,97.39
2018-12-01T01:24:23.359Z,98.06
2018-12-01T01:25:03.913Z,97.77
2018-12-01T01:25:44.489Z,97.87
2018-12-01T01:26:25.066Z,97.87
2018-12-01T01:27:05.682Z,97.87
2018-12-01T01:27:46.209Z,97.77
2018-12-01T01:28:26.795Z,97.87
2018-12-01T01:29:07.369Z,97.92
2018-12-01T01:29:47.932Z,97.77
2018-12-01T01:30:28.588Z,97.92
2018-12-01T01:31:09.251Z,97.87
2018-12-01T01:31:49.812Z,97.96
2018-12-01T01:32:30.477Z,97.87
2018-12-01T01:33:10.970Z,98.01
2018-12-01T01:33:51.526Z,97.63
2018-12-01T01:34:32.088Z,98.01
2018-12-01T01:35:12.647Z,98.11
2018-12-01T01:35:53.227Z,97.63
2018-12-01T01:36:33.814Z,98.01
2018-12-01T01:37:14.367Z,97.63
2018-12-01T01:37:54.928Z,97.92
2018-12-01T01:38:35.504Z,97.82
2018-12-01T01:39:16.102Z,97.73
2018-12-01T01:39:56.683Z,97.63
2018-12-01T01:40:37.247Z,97.82
2018-12-01T01:41:17.833Z,97.73
2018-12-01T01:41:58.418Z,97.73
2018-12-01T01:42:38.963Z,97.82
2018-12-01T01:43:19.561Z,98.01
2018-12-01T01:44:00.117Z,97.92
2018-12-01T01:44:40.687Z,97.73
2018-12-01T01:45:21.253Z,97.73
2018-12-01T01:46:01.822Z,96.97
2018-12-01T01:46:42.392Z,96.97
2018-12-01T01:47:22.966Z,97.16
2018-12-01T01:48:03.503Z,97.35
2018-12-01T01:48:44.113Z,97.25
2018-12-01T01:49:24.653Z,96.97
2018-12-01T01:50:05.210Z,96.59
2018-12-01T01:50:45.770Z,96.59
2018-12-01T01:51:26.330Z,96.97
2018-12-01T01:52:06.915Z,96.97
2018-12-01T01:52:47.490Z,96.97
2018-12-01T01:53:28.068Z,96.97
2018-12-01T01:54:08.649Z,96.31
2018-12-01T01:54:49.197Z,96.4
2018-12-01T01:55:29.764Z,96.5
2018-12-01T01:56:10.363Z,96.4
2018-12-01T01:56:50.880Z,96.12
2018-12-01T01:57:31.444Z,96.5
2018-12-01T01:58:12.007Z,96.88
2018-12-01T01:58:52.575Z,96.59
2018-12-01T01:59:33.135Z,96.88
2018-12-01T02:00:13.698Z,97.25
2018-12-01T02:00:54.286Z,96.97
2018-12-01T02:01:34.857Z,96.69
2018-12-01T02:02:15.393Z,97.44
2018-12-01T02:02:55.950Z,97.54
2018-12-01T02:03:36.518Z,97.54
2018-12-01T02:04:17.084Z,97.54
2018-12-01T02:04:57.649Z,97.54
2018-12-01T02:05:38.225Z,96.78
2018-12-01T02:06:18.791Z,96.69
2018-12-01T02:06:59.347Z,96.88
2018-12-01T02:07:39.906Z,97.25
2018-12-01T02:08:20.464Z,96.88
2018-12-01T02:09:01.024Z,96.97
2018-12-01T02:09:41.820Z,96.59
2018-12-01T02:10:22.419Z,96.88
2018-12-01T02:11:03.002Z,96.78
2018-12-01T02:11:43.556Z,96.59
2018-12-01T02:12:24.104Z,96.69
2018-12-01T02:13:04.667Z,96.97
2018-12-01T02:13:45.245Z,96.31
2018-12-01T02:14:25.788Z,96.5
2018-12-01T02:15:06.363Z,96.31
2018-12-01T02:15:46.929Z,96.5
2018-12-01T02:16:27.494Z,96.02
2018-12-01T02:17:08.079Z,96.21
2018-12-01T02:17:48.645Z,96.31
2018-12-01T02:18:29.213Z,95.93
2018-12-01T02:19:09.786Z,96.5
2018-12-01T02:19:50.331Z,96.5
2018-12-01T02:20:30.894Z,96.4
2018-12-01T02:21:11.470Z,96.69
2018-12-01T02:21:52.052Z,96.5
2018-12-01T02:22:32.595Z,96.5
2018-12-01T02:23:13.169Z,96.5
2018-12-01T02:23:53.737Z,96.21
2018-12-01T02:24:34.290Z,96.88
2018-12-01T02:25:14.876Z,96.97
2018-12-01T02:25:55.441Z,96.78
2018-12-01T02:26:36.002Z,97.16
2018-12-01T02:27:16.558Z,96.88
2018-12-01T02:27:57.124Z,96.88
2018-12-01T02:28:37.687Z,96.88
2018-12-01T02:29:18.243Z,97.35
2018-12-01T02:29:58.808Z,96.97
2018-12-01T02:30:39.362Z,97.54
2018-12-01T02:31:19.923Z,97.35
2018-12-01T02:32:01.412Z,97.16
2018-12-01T02:32:41.057Z,97.35
2018-12-01T02:33:21.647Z,97.16
2018-12-01T02:34:02.206Z,97.25
2018-12-01T02:34:42.759Z,97.73
2018-12-01T02:35:23.311Z,97.16
2018-12-01T02:36:03.887Z,97.44
2018-12-01T02:36:44.449Z,97.25
2018-12-01T02:37:25.011Z,97.16
2018-12-01T02:38:05.554Z,97.92
2018-12-01T02:38:46.107Z,97.44
2018-12-01T02:39:26.716Z,97.54
2018-12-01T02:40:07.237Z,96.88
2018-12-01T02:40:47.825Z,96.69
2018-12-01T02:41:28.447Z,96.97
2018-12-01T02:42:09.010Z,97.06
2018-12-01T02:42:49.566Z,96.97
2018-12-01T02:43:30.131Z,96.78
2018-12-01T02:44:10.683Z,96.78
2018-12-01T02:44:51.251Z,96.31
2018-12-01T02:45:31.810Z,96.12
2018-12-01T02:46:12.360Z,96.59
2018-12-01T02:46:52.927Z,96.59
2018-12-01T02:47:33.473Z,96.12
2018-12-01T02:48:14.111Z,96.21
2018-12-01T02:48:54.668Z,96.97
2018-12-01T02:49:35.214Z,96.97
2018-12-01T02:50:15.793Z,96.88
2018-12-01T02:50:56.356Z,96.88
2018-12-01T02:51:36.946Z,96.88
2018-12-01T02:52:17.501Z,96.59
2018-12-01T02:52:58.066Z,96.69
2018-12-01T02:53:38.612Z,96.97
2018-12-01T02:54:19.175Z,96.97
2018-12-01T02:54:59.727Z,96.97
2018-12-01T02:55:40.293Z,96.59
2018-12-01T02:56:20.861Z,96.21
2018-12-01T02:57:01.432Z,96.31
2018-12-01T02:57:42.034Z,96.4
2018-12-01T02:58:22.606Z,96.78
2018-12-01T02:59:03.170Z,96.5
2018-12-01T02:59:43.727Z,96.4
2018-12-01T03:00:24.306Z,96.31
2018-12-01T03:01:04.863Z,96.4
2018-12-01T03:01:45.439Z,96.4
2018-12-01T03:02:25.986Z,96.59
2018-12-01T03:03:06.542Z,96.69
2018-12-01T03:03:47.112Z,96.12
2018-12-01T03:04:27.687Z,96.12
2018-12-01T03:05:08.255Z,96.02
2018-12-01T03:05:48.812Z,95.74
2018-12-01T03:06:29.381Z,95.55
2018-12-01T03:07:10.023Z,95.26
2018-12-01T03:07:50.555Z,96.4
2018-12-01T03:08:31.133Z,96.12
2018-12-01T03:09:11.734Z,96.4
2018-12-01T03:09:52.256Z,96.5
2018-12-01T03:10:32.945Z,96.5
2018-12-01T03:11:13.395Z,96.59
2018-12-01T03:11:53.979Z,96.69
2018-12-01T03:12:34.544Z,96.5
2018-12-01T03:13:15.113Z,96.12
2018-12-01T03:13:55.679Z,95.93
2018-12-01T03:14:36.232Z,96.12
2018-12-01T03:15:16.790Z,96.5
2018-12-01T03:15:57.350Z,96.12
2018-12-01T03:16:37.902Z,96.02
2018-12-01T03:17:18.452Z,96.4
2018-12-01T03:17:59.020Z,96.4
2018-12-01T03:18:39.568Z,95.93
2018-12-01T03:19:20.144Z,96.12
2018-12-01T03:20:00.693Z,96.12
2018-12-01T03:20:41.238Z,95.74
2018-12-01T03:21:21.808Z,95.64
2018-12-01T03:22:02.378Z,95.45
2018-12-01T03:22:42.942Z,95.55
2018-12-01T03:23:23.515Z,95.64
2018-12-01T03:24:04.093Z,95.64
2018-12-01T03:24:44.704Z,95.74
2018-12-01T03:25:25.272Z,95.64
2018-12-01T03:26:05.851Z,96.12
2018-12-01T03:26:46.397Z,96.5
2018-12-01T03:27:26.975Z,96.69
2018-12-01T03:28:07.518Z,96.5
2018-12-01T03:28:48.104Z,96.21
2018-12-01T03:29:28.661Z,96.21
2018-12-01T03:30:09.238Z,96.31
2018-12-01T03:30:49.834Z,96.69
2018-12-01T03:31:30.380Z,96.5
2018-12-01T03:32:10.928Z,96.5
2018-12-01T03:32:51.488Z,96.5
2018-12-01T03:33:32.044Z,96.4
2018-12-01T03:34:12.595Z,96.5
2018-12-01T03:34:53.153Z,96.4
2018-12-01T03:35:33.704Z,96.31
2018-12-01T03:36:14.282Z,96.31
2018-12-01T03:36:54.836Z,96.69
2018-12-01T03:37:35.403Z,96.78
2018-12-01T03:38:15.977Z,96.78
2018-12-01T03:38:56.606Z,96.69
2018-12-01T03:39:37.167Z,96.31
2018-12-01T03:40:17.812Z,96.59
2018-12-01T03:40:58.372Z,96.31
2018-12-01T03:41:38.938Z,96.4
2018-12-01T03:42:19.518Z,96.5
2018-12-01T03:43:00.140Z,96.5
2018-12-01T03:43:40.700Z,95.93
2018-12-01T03:44:21.253Z,96.31
2018-12-01T03:45:01.833Z,95.93
2018-12-01T03:45:42.392Z,96.31
2018-12-01T03:46:22.978Z,95.93
2018-12-01T03:47:03.586Z,96.59
2018-12-01T03:47:44.145Z,96.5
2018-12-01T03:48:24.694Z,96.59
2018-12-01T03:49:05.294Z,96.59
2018-12-01T03:49:45.852Z,96.02
2018-12-01T03:50:26.406Z,96.59
2018-12-01T03:51:06.967Z,96.78
2018-12-01T03:51:47.572Z,96.97
2018-12-01T03:52:28.112Z,96.88
2018-12-01T03:53:08.674Z,96.78
2018-12-01T03:53:49.272Z,96.69
2018-12-01T03:54:29.833Z,96.97
2018-12-01T03:55:10.389Z,96.69
2018-12-01T03:55:50.943Z,96.78
2018-12-01T03:56:31.505Z,96.78
2018-12-01T03:57:12.058Z,96.4
2018-12-01T03:57:52.620Z,96.88
2018-12-01T03:58:33.200Z,96.88
2018-12-01T03:59:13.768Z,97.06
2018-12-01T03:59:54.320Z,97.16
2018-12-01T04:00:34.880Z,96.97
2018-12-01T04:01:15.431Z,97.16
2018-12-01T04:01:55.985Z,96.88
2018-12-01T04:02:36.576Z,96.69
2018-12-01T04:03:17.118Z,97.73
2018-12-01T04:03:57.663Z,97.44
2018-12-01T04:04:38.243Z,97.25
2018-12-01T04:05:18.820Z,97.06
2018-12-01T04:05:59.385Z,97.54
2018-12-01T04:06:39.923Z,97.54
2018-12-01T04:07:20.496Z,97.73
2018-12-01T04:08:01.082Z,97.54
2018-12-01T04:08:41.636Z,97.54
2018-12-01T04:09:22.218Z,97.54
2018-12-01T04:10:02.768Z,96.78
2018-12-01T04:10:43.342Z,97.06
2018-12-01T04:11:23.902Z,96.59
2018-12-01T04:12:04.472Z,96.59
2018-12-01T04:12:45.039Z,96.4
2018-12-01T04:13:25.601Z,96.97
2018-12-01T04:14:06.157Z,97.16
2018-12-01T04:14:46.729Z,96.88
2018-12-01T04:15:27.284Z,97.54
2018-12-01T04:16:07.835Z,97.35
2018-12-01T04:16:48.396Z,97.06
2018-12-01T04:17:28.953Z,96.88
2018-12-01T04:18:09.518Z,97.16
2018-12-01T04:18:50.073Z,97.73
2018-12-01T04:19:30.637Z,97.44
2018-12-01T04:20:11.205Z,97.54
2018-12-01T04:20:51.757Z,97.73
2018-12-01T04:21:32.362Z,97.82
2018-12-01T04:22:12.942Z,97.82
2018-12-01T04:22:53.511Z,98.11
2018-12-01T04:23:34.109Z,97.63
2018-12-01T04:24:14.672Z,98.3
2018-12-01T04:24:55.232Z,98.49
2018-12-01T04:25:35.777Z,98.39
2018-12-01T04:26:16.348Z,98.39
2018-12-01T04:26:56.903Z,98.39
2018-12-01T04:27:37.458Z,98.77
2018-12-01T04:28:18.056Z,98.58
2018-12-01T04:28:58.606Z,98.49
2018-12-01T04:29:39.164Z,99.15
2018-12-01T04:30:19.721Z,99.05
2018-12-01T04:31:00.288Z,98.96
2018-12-01T04:31:40.830Z,99.24
2018-12-01T04:32:21.392Z,98.3
2018-12-01T04:33:01.952Z,98.58
2018-12-01T04:33:42.516Z,98.68
2018-12-01T04:34:23.063Z,98.49
2018-12-01T04:35:03.624Z,98.86
2018-12-01T04:35:44.190Z,99.15
2018-12-01T04:36:24.749Z,99.52
2018-12-01T04:37:05.309Z,99.52
2018-12-01T04:37:45.866Z,99.15
2018-12-01T04:38:26.425Z,99.33
2018-12-01T04:39:06.989Z,98.86
2018-12-01T04:39:47.546Z,99.43
2018-12-01T04:40:28.124Z,99.15
2018-12-01T04:41:08.691Z,99.15
2018-12-01T04:41:49.237Z,99.43
2018-12-01T04:42:29.807Z,99.15
2018-12-01T04:43:10.360Z,99.15
2018-12-01T04:43:50.929Z,99.15
2018-12-01T04:44:31.467Z,99.52
2018-12-01T04:45:12.036Z,98.77
2018-12-01T04:45:52.595Z,99.05
2018-12-01T04:46:33.155Z,98.86
2018-12-01T04:47:13.735Z,98.77
2018-12-01T04:47:54.278Z,98.39
2018-12-01T04:48:34.828Z,98.58
2018-12-01T04:49:15.370Z,98.3
2018-12-01T04:49:55.936Z,98.49
2018-12-01T04:50:36.500Z,98.39
2018-12-01T04:51:17.039Z,98.77
2018-12-01T04:51:57.607Z,98.86
2018-12-01T04:52:38.163Z,98.2
2018-12-01T04:53:18.732Z,98.39
2018-12-01T04:53:59.293Z,98.2
2018-12-01T04:54:39.847Z,98.39
2018-12-01T04:55:20.401Z,98.2
2018-12-01T04:56:00.952Z,98.58
2018-12-01T04:56:41.529Z,98.49
2018-12-01T04:57:22.132Z,98.39
2018-12-01T04:58:02.671Z,98.96
2018-12-01T04:58:43.246Z,98.86
2018-12-01T04:59:23.817Z,98.96
2018-12-01T05:00:04.403Z,99.52
2018-12-01T05:00:44.987Z,99.33
2018-12-01T05:01:25.558Z,99.24
2018-12-01T05:02:06.130Z,98.96
2018-12-01T05:02:46.680Z,99.52
2018-12-01T05:03:27.260Z,99.52
2018-12-01T05:04:07.901Z,99.43
2018-12-01T05:04:48.442Z,99.52
2018-12-01T05:05:29.018Z,99.52
2018-12-01T05:06:09.577Z,99.52
2018-12-01T05:06:50.176Z,99.33
2018-12-01T05:07:30.722Z,99.52
2018-12-01T05:08:11.302Z,98.77
2018-12-01T05:08:51.863Z,99.24
2018-12-01T05:09:32.413Z,98.68
2018-12-01T05:10:13.233Z,98.77
2018-12-01T05:10:53.788Z,98.39
2018-12-01T05:11:34.431Z,98.39
2018-12-01T05:12:14.992Z,98.3
2018-12-01T05:12:55.539Z,98.01
2018-12-01T05:13:36.099Z,98.2
2018-12-01T05:14:16.652Z,98.39
2018-12-01T05:14:57.221Z,98.2
2018-12-01T05:15:37.784Z,98.39
2018-12-01T05:16:18.333Z,98.39
2018-12-01T05:16:58.899Z,98.2
2018-12-01T05:17:39.480Z,98.58
2018-12-01T05:18:20.055Z,97.73
2018-12-01T05:19:00.644Z,97.92
2018-12-01T05:19:41.149Z,97.82
2018-12-01T05:20:21.714Z,98.11
2018-12-01T05:21:02.276Z,97.54
2018-12-01T05:21:42.820Z,97.44
2018-12-01T05:22:23.383Z,97.54
2018-12-01T05:23:03.945Z,96.97
2018-12-01T05:23:44.504Z,97.25
2018-12-01T05:24:25.062Z,97.35
2018-12-01T05:25:05.612Z,97.35
2018-12-01T05:25:46.156Z,97.16
2018-12-01T05:26:26.701Z,97.54
2018-12-01T05:27:07.253Z,98.11
2018-12-01T05:27:47.818Z,97.63
2018-12-01T05:28:28.423Z,98.58
2018-12-01T05:29:08.986Z,98.2
2018-12-01T05:29:49.604Z,98.2
2018-12-01T05:30:30.175Z,98.39
2018-12-01T05:31:10.776Z,98.3
2018-12-01T05:31:51.338Z,98.3
2018-12-01T05:32:31.900Z,98.39
2018-12-01T05:33:12.452Z,98.49
2018-12-01T05:33:53.034Z,98.01
2018-12-01T05:34:33.582Z,98.49
2018-12-01T05:35:14.149Z,98.3
2018-12-01T05:35:54.716Z,98.39
2018-12-01T05:36:35.277Z,98.39
2018-12-01T05:37:15.857Z,98.2
2018-12-01T05:37:56.404Z,98.11
2018-12-01T05:38:36.994Z,98.11
2018-12-01T05:39:17.546Z,98.3
2018-12-01T05:39:58.111Z,98.01
2018-12-01T05:40:38.720Z,98.01
2018-12-01T05:41:19.265Z,98.01
2018-12-01T05:41:59.828Z,98.01
2018-12-01T05:42:40.407Z,98.01
2018-12-01T05:43:21.019Z,98.25
2018-12-01T05:44:01.595Z,98.68
2018-12-01T05:44:42.153Z,98.58
2018-12-01T05:45:22.729Z,98.58
2018-12-01T05:46:03.283Z,98.35
2018-12-01T05:46:43.941Z,98.11
2018-12-01T05:47:24.493Z,98.35
2018-12-01T05:48:05.045Z,98.39
2018-12-01T05:48:45.594Z,97.82
2018-12-01T05:49:26.148Z,97.78
2018-12-01T05:50:06.702Z,97.78
2018-12-01T05:50:47.244Z,97.87
2018-12-01T05:51:27.791Z,98.11
2018-12-01T05:52:08.354Z,97.78
2018-12-01T05:52:48.919Z,98.49
2018-12-01T05:53:29.529Z,97.59
2018-12-01T05:54:10.097Z,98.44
2018-12-01T05:54:50.660Z,98.44
2018-12-01T05:55:31.258Z,98.25
2018-12-01T05:56:11.770Z,98.2
2018-12-01T05:56:52.337Z,98.25
2018-12-01T05:57:32.901Z,98.11
2018-12-01T05:58:13.463Z,98.2
2018-12-01T05:58:54.041Z,98.44
2018-12-01T05:59:34.612Z,98.25
2018-12-01T06:00:15.164Z,98.25
2018-12-01T06:00:55.710Z,98.44
2018-12-01T06:01:36.266Z,98.25
2018-12-01T06:02:16.847Z,98.49
2018-12-01T06:02:57.427Z,98.25
2018-12-01T06:03:37.986Z,98.06
2018-12-01T06:04:18.545Z,98.16
2018-12-01T06:04:59.111Z,98.35
2018-12-01T06:05:39.664Z,98.06
2018-12-01T06:06:20.245Z,98.25
2018-12-01T06:07:00.809Z,98.25
2018-12-01T06:07:41.421Z,98.16
2018-12-01T06:08:21.984Z,98.44
2018-12-01T06:09:02.580Z,98.54
2018-12-01T06:09:43.148Z,98.25
2018-12-01T06:10:23.709Z,98.44
2018-12-01T06:11:04.260Z,98.44
2018-12-01T06:11:44.863Z,98.16
2018-12-01T06:12:25.416Z,98.44
2018-12-01T06:13:06.000Z,98.44
2018-12-01T06:13:46.555Z,98.16
2018-12-01T06:14:27.121Z,98.44
2018-12-01T06:15:07.690Z,98.63
2018-12-01T06:15:48.236Z,97.87
2018-12-01T06:16:28.814Z,97.78
2018-12-01T06:17:09.383Z,98.06
2018-12-01T06:17:49.966Z,97.78
2018-12-01T06:18:30.524Z,97.97
2018-12-01T06:19:11.068Z,97.78
2018-12-01T06:19:51.642Z,97.78
2018-12-01T06:20:32.244Z,97.87
2018-12-01T06:21:12.798Z,97.78
2018-12-01T06:21:53.347Z,98.06
2018-12-01T06:22:33.904Z,97.87
2018-12-01T06:23:14.489Z,98.16
2018-12-01T06:23:55.051Z,97.87
2018-12-01T06:24:35.601Z,98.06
2018-12-01T06:25:16.168Z,97.78
2018-12-01T06:25:56.739Z,97.68
2018-12-01T06:26:37.306Z,97.68
2018-12-01T06:27:17.860Z,98.06
2018-12-01T06:27:58.405Z,98.16
2018-12-01T06:28:38.972Z,97.68
2018-12-01T06:29:19.769Z,97.97
2018-12-01T06:30:00.451Z,97.78
2018-12-01T06:30:41.032Z,98.25
2018-12-01T06:31:21.801Z,98.44
2018-12-01T06:32:02.457Z,98.25
2018-12-01T06:32:43.083Z,98.06
2018-12-01T06:33:23.616Z,98.06
2018-12-01T06:34:04.203Z,98.16
2018-12-01T06:34:44.777Z,98.35
2018-12-01T06:35:25.470Z,98.35
2018-12-01T06:36:06.019Z,98.16
2018-12-01T06:36:46.605Z,98.16
2018-12-01T06:37:27.162Z,98.16
2018-12-01T06:38:07.777Z,98.06
2018-12-01T06:38:48.346Z,98.35
2018-12-01T06:39:28.909Z,98.54
2018-12-01T06:40:09.467Z,98.16
2018-12-01T06:40:50.027Z,98.35
2018-12-01T06:41:30.602Z,98.44
2018-12-01T06:42:11.148Z,97.97
2018-12-01T06:42:54.537Z,98.06
2018-12-01T06:45:43.060Z,97.49
2018-12-01T06:46:23.642Z,97.68
2018-12-01T06:47:04.207Z,97.78
2018-12-01T06:47:44.787Z,97.68
2018-12-01T06:48:25.325Z,97.87
2018-12-01T06:49:05.893Z,97.49
2018-12-01T06:49:46.481Z,97.49
2018-12-01T06:50:27.108Z,97.59
2018-12-01T06:51:07.712Z,97.59
2018-12-01T06:51:48.339Z,97.97
2018-12-01T06:52:28.902Z,97.97
2018-12-01T06:53:09.864Z,97.97
2018-12-01T06:53:50.414Z,98.06
2018-12-01T06:54:30.969Z,97.87
2018-12-01T06:55:11.529Z,97.21
2018-12-01T06:55:52.085Z,96.92
2018-12-01T06:56:32.676Z,96.92
2018-12-01T06:57:13.239Z,96.92
2018-12-01T06:57:53.792Z,97.3
2018-12-01T06:58:34.359Z,97.49
2018-12-01T06:59:14.939Z,96.92
2018-12-01T06:59:55.480Z,96.92
2018-12-01T07:00:36.043Z,96.92
2018-12-01T07:01:16.601Z,97.49
2018-12-01T07:01:57.156Z,97.3
2018-12-01T07:02:37.717Z,97.02
2018-12-01T07:03:18.295Z,97.3
2018-12-01T07:03:58.897Z,97.21
2018-12-01T07:04:39.436Z,98.06
2018-12-01T07:05:19.993Z,97.97
2018-12-01T07:06:00.556Z,97.87
2018-12-01T07:06:41.129Z,97.49
2018-12-01T07:07:21.682Z,97.78
2018-12-01T07:08:02.240Z,97.68
2018-12-01T07:08:42.789Z,97.97
2018-12-01T07:09:23.338Z,97.97
2018-12-01T07:10:03.899Z,97.87
2018-12-01T07:10:44.453Z,97.87
2018-12-01T07:11:24.999Z,97.87
2018-12-01T07:12:05.574Z,97.87
2018-12-01T07:12:46.154Z,97.87
2018-12-01T07:13:26.713Z,98.16
2018-12-01T07:14:07.270Z,98.16
2018-12-01T07:14:47.837Z,98.16
2018-12-01T07:15:28.437Z,97.87
2018-12-01T07:16:08.989Z,97.87
2018-12-01T07:16:49.542Z,97.97
2018-12-01T07:17:30.113Z,97.68
2018-12-01T07:18:10.685Z,97.68
2018-12-01T07:18:51.269Z,98.25
2018-12-01T07:19:31.850Z,98.06
2018-12-01T07:20:12.414Z,98.06
2018-12-01T07:20:52.989Z,98.54
2018-12-01T07:21:33.583Z,98.44
2018-12-01T07:22:14.141Z,98.87
2018-12-01T07:22:54.712Z,98.72
2018-12-01T07:23:35.278Z,99.72
2018-12-01T07:24:15.837Z,99.99
2018-12-01T07:24:56.432Z,99.99
2018-12-01T07:25:36.977Z,99.99
2018-12-01T07:26:17.562Z,99.99
2018-12-01T07:26:58.123Z,99.99
2018-12-01T07:27:38.678Z,99.99
2018-12-01T07:28:19.228Z,99.99
2018-12-01T07:28:59.796Z,99.99
2018-12-01T07:29:40.410Z,98.63
2018-12-01T07:30:20.965Z,97.21
2018-12-01T07:31:01.545Z,96.45
2018-12-01T07:31:42.097Z,95.69
2018-12-01T07:32:22.650Z,95.03
2018-12-01T07:33:03.222Z,94.37
2018-12-01T07:33:43.916Z,94.27
2018-12-01T07:34:24.507Z,94.37
2018-12-01T07:35:05.071Z,93.94
2018-12-01T07:35:45.667Z,93.7
2018-12-01T07:36:26.227Z,93.65
2018-12-01T07:37:06.813Z,93.84
2018-12-01T07:37:47.395Z,94.04
2018-12-01T07:38:27.959Z,94.04
2018-12-01T07:39:08.521Z,94.32
2018-12-01T07:39:49.089Z,94.23
2018-12-01T07:40:29.647Z,94.04
2018-12-01T07:41:10.206Z,94.6
2018-12-01T07:41:51.711Z,94.6
2018-12-01T07:42:32.258Z,94.42
2018-12-01T07:43:12.808Z,94.51
2018-12-01T07:43:53.448Z,94.6
2018-12-01T07:44:34.111Z,94.89
2018-12-01T07:45:14.669Z,94.04
2018-12-01T07:45:55.258Z,95.17
2018-12-01T07:46:35.863Z,94.98
2018-12-01T07:47:16.441Z,95.55
2018-12-01T07:47:57.021Z,95.17
2018-12-01T07:48:37.586Z,95.45
2018-12-01T07:49:18.150Z,95.84
2018-12-01T07:49:58.710Z,95.65
2018-12-01T07:50:39.286Z,95.55
2018-12-01T07:51:19.855Z,95.93
2018-12-01T07:52:00.421Z,95.84
2018-12-01T07:53:47.947Z,96.31
2018-12-01T07:54:28.531Z,96.41
2018-12-01T07:55:09.108Z,95.93
2018-12-01T07:55:49.676Z,96.22
2018-12-01T07:56:30.232Z,96.22
2018-12-01T07:57:10.790Z,96.31
2018-12-01T07:57:51.339Z,96.5
2018-12-01T07:58:32.724Z,96.59
2018-12-01T07:59:13.294Z,96.41
2018-12-01T07:59:53.877Z,96.5
2018-12-01T08:00:34.454Z,96.69
2018-12-01T08:01:15.067Z,96.78
2018-12-01T08:01:55.602Z,96.45
2018-12-01T08:02:36.175Z,96.92
2018-12-01T08:03:16.724Z,96.92
2018-12-01T08:03:57.296Z,96.64
2018-12-01T08:04:37.858Z,96.26
2018-12-01T08:05:18.402Z,95.69
2018-12-01T08:05:58.966Z,95.5
2018-12-01T08:06:39.490Z,95.03
2018-12-01T08:07:20.056Z,94.7
2018-12-01T08:08:00.607Z,95.03
2018-12-01T08:08:41.273Z,95.88
2018-12-01T08:09:21.830Z,97.12
2018-12-01T08:10:02.413Z,96.83
2018-12-01T08:10:43.015Z,96.36
2018-12-01T08:11:23.608Z,95.79
2018-12-01T08:12:04.204Z,95.41
2018-12-01T08:12:44.767Z,94.74
2018-12-01T08:13:25.380Z,95.22
2018-12-01T08:14:05.953Z,94.93
2018-12-01T08:14:46.550Z,95.12
2018-12-01T08:15:27.119Z,95.12
2018-12-01T08:16:07.700Z,95.22
2018-12-01T08:16:48.257Z,95.5
2018-12-01T08:17:28.819Z,94.65
2018-12-01T08:18:09.465Z,94.74
2018-12-01T08:18:50.101Z,94.84
2018-12-01T08:19:30.667Z,94.84
2018-12-01T08:20:11.244Z,95.5
2018-12-01T08:20:52.585Z,95.22
2018-12-01T08:23:34.790Z,97.12
2018-12-01T08:24:15.351Z,97.12
2018-12-01T08:24:55.917Z,96.83
2018-12-01T08:25:36.482Z,98.07
2018-12-01T08:26:17.042Z,99.58
2018-12-01T08:26:57.594Z,99.99
2018-12-01T08:29:36.576Z,96.59
2018-12-01T08:30:17.149Z,95.17
2018-12-01T08:30:57.901Z,94.13
2018-12-01T08:31:38.469Z,92.99
2018-12-01T08:32:19.522Z,91.75
2018-12-01T08:33:00.078Z,91.66
2018-12-01T08:33:40.631Z,91.47
2018-12-01T08:34:21.586Z,91.38
2018-12-01T08:35:02.061Z,90.81
2018-12-01T08:35:42.661Z,90.71
2018-12-01T08:36:23.250Z,91.19
2018-12-01T08:37:03.950Z,91.19
2018-12-01T08:37:44.576Z,90.71
2018-12-01T08:38:25.138Z,91.19
2018-12-01T08:39:05.723Z,91.14
2018-12-01T08:39:46.323Z,91.52
2018-12-01T08:40:26.901Z,92.18
2018-12-01T08:41:07.493Z,91.9
2018-12-01T08:41:48.051Z,91.99
2018-12-01T08:42:28.655Z,91.99
2018-12-01T08:43:09.304Z,92.85
2018-12-01T08:43:49.885Z,92.76
2018-12-01T08:44:30.452Z,93.13
2018-12-01T08:45:11.029Z,92.76
2018-12-01T08:45:51.572Z,93.13
2018-12-01T08:46:32.128Z,93.04
2018-12-01T08:47:12.682Z,93.51
2018-12-01T08:47:53.231Z,93.8
2018-12-01T08:48:34.670Z,93.51
2018-12-01T08:49:15.279Z,93.51
2018-12-01T08:49:55.836Z,93.23
2018-12-01T08:50:36.567Z,93.61
2018-12-01T08:51:17.122Z,93.41
2018-12-01T08:51:57.694Z,93.8